CMB851 Details

Departure: Paya Lebar Airport (WSAP)
Arrival: Yokota AFB (RJTY)
Route: TOMAN L625 MEVIN B462 KAZIK Y59 AZAMA Y57 BUNGU XAC
Notes: USTRANSCOM CONTRACT FLIGHT


Current Weather Information
WSAP 181600Z 06006KT 9999 FEW018 SCT160 BKN300 27/22 Q1012
RJTY 181456Z AUTO 30003KT 10SM FEW210 07/01 A3012 RMK AO2 SLP206 T00740010 401431005 58008 FZRANO $